Brownsville South Padre Island International Airport
KBRO : rendu visible

Aérodrome :











RETROUVEZ-NOUS SUR...

 
LOGIN :

S'inscrire | Disclaimer

   EN    FR    IT 

 









Légende :    VFR   VFR Marginal   IFR   IFR Intensif   IFR Très Intensif
Visi : 
Plafond : 
>= 8 km
>= 3000ft
5 à 8 km
1000 à 3000 ft
1500m à 5 km
500 à 1000 ft
800 à 1500m
200 à 500 ft
< 800m
< 200 ft
Symboles :   Orages  Brouillard  Fortes neiges  Fortes précipitations  Vent > 20 kt






- Altitude de l'aérodrome : 22 ft
- Code IATA : BRO


KBRO - Brownsville South Padre Island International

DERNIER METAR :
  • 011217Z 35004KT 10SM BKN023 BKN034 24/23 A3000 RMK AO2 RAE1156 P0000 T02440228

METARs EXPIRÉS :
  • 011153Z 25006KT 10SM -RA SCT012 BKN021 BKN029 24/23 A2999 RMK AO2 RAB42 SLP155 P0000 60023 70045 T02440228 10250 20239 53007 $
  • 011133Z 25009KT 10SM SCT010 BKN016 BKN024 24/23 A2999 RMK AO2 T02390228 $
  • 011053Z 30003KT 10SM CLR 24/23 A2998 RMK AO2 RAE05 SLP150 P0000 T02390228 $
  • 010958Z AUTO 00000KT 10SM -RA SCT019 SCT044 BKN055 25/23 A2997 RMK AO2 P0000 T02500233 $
  • 010949Z AUTO 00000KT 10SM VCTS -RA BKN019 BKN023 OVC070 25/23 A2997 RMK AO2 RAB08 P0023 $

TAF KBRO
Valide du 01 à 12h jusqu'au 02 à 12h UTC


011127Z 0112/0212 29008KT 6SM -SHRA FEW019 SCT040 BKN060
FM011600 09010KT P6SM VCSH BKN040
TEMPO 0117/0121 VRB15G25KT 3SM TSRA BKN025CB
FM012100 11007KT P6SM VCSH SCT035 BKN050 BKN150
FM020000 09007KT P6SM -RA OVC060
FM020200 09005KT P6SM BKN019 OVC030
FM021100 04003KT P6SM SCT250
FIR KZHU / Amérique du Nord



MET'MAP, la Météo Aéronautique d'un coup d'oeil ! - Copyright ORBIFLY Décembre 2007 - Disclaimer

ORBIFLY MET'MAP TEAM :

Programmation & Développement : Alexandra Zaïnal
Sur une idée originale de : Baudouin d'Aumeries
Assistance à la programmation : Marc-Olivier Méhu
Soutien technique & logistique : Manuel Goepfert

Contact : metmap@orbifly.com




SOURCES & CREDITS :

   NOAA       Earth
Advisory